sensor_id;sensor_type;location;lat;lon;timestamp;temperature;humidity
37594;DHT22;23441;50.856;6.076;2024-02-14T00:00:48;8.40;99.90
37594;DHT22;23441;50.856;6.076;2024-02-14T00:03:13;8.40;99.90
37594;DHT22;23441;50.856;6.076;2024-02-14T00:05:39;8.40;99.90
37594;DHT22;23441;50.856;6.076;2024-02-14T00:08:06;8.50;99.90
37594;DHT22;23441;50.856;6.076;2024-02-14T00:10:32;8.50;99.90
37594;DHT22;23441;50.856;6.076;2024-02-14T00:12:58;8.50;99.90
37594;DHT22;23441;50.856;6.076;2024-02-14T00:15:24;8.50;99.90
37594;DHT22;23441;50.856;6.076;2024-02-14T00:17:52;8.60;99.90
37594;DHT22;23441;50.856;6.076;2024-02-14T00:20:18;8.60;99.90
37594;DHT22;23441;50.856;6.076;2024-02-14T00:22:45;8.60;99.90
37594;DHT22;23441;50.856;6.076;2024-02-14T00:25:11;8.60;99.90
37594;DHT22;23441;50.856;6.076;2024-02-14T00:27:36;8.60;99.90
37594;DHT22;23441;50.856;6.076;2024-02-14T00:30:02;8.60;99.90
37594;DHT22;23441;50.856;6.076;2024-02-14T00:32:29;8.60;99.90
37594;DHT22;23441;50.856;6.076;2024-02-14T00:34:54;8.70;99.90
37594;DHT22;23441;50.856;6.076;2024-02-14T00:37:21;8.60;99.90
37594;DHT22;23441;50.856;6.076;2024-02-14T00:39:46;8.60;99.90
37594;DHT22;23441;50.856;6.076;2024-02-14T00:42:15;8.60;99.90
37594;DHT22;23441;50.856;6.076;2024-02-14T00:44:40;8.50;99.90
37594;DHT22;23441;50.856;6.076;2024-02-14T00:47:06;8.50;99.90
37594;DHT22;23441;50.856;6.076;2024-02-14T00:49:34;8.50;99.90
37594;DHT22;23441;50.856;6.076;2024-02-14T00:52:01;8.40;99.90
37594;DHT22;23441;50.856;6.076;2024-02-14T00:54:27;8.40;99.90
37594;DHT22;23441;50.856;6.076;2024-02-14T00:56:53;8.40;99.90
37594;DHT22;23441;50.856;6.076;2024-02-14T00:59:18;8.40;99.90
37594;DHT22;23441;50.856;6.076;2024-02-14T01:01:44;8.50;99.90
37594;DHT22;23441;50.856;6.076;2024-02-14T01:04:10;8.60;99.90
37594;DHT22;23441;50.856;6.076;2024-02-14T01:06:36;8.60;99.90
37594;DHT22;23441;50.856;6.076;2024-02-14T01:09:02;8.60;99.90
37594;DHT22;23441;50.856;6.076;2024-02-14T01:11:28;8.60;99.90
37594;DHT22;23441;50.856;6.076;2024-02-14T01:13:54;8.70;99.90
37594;DHT22;23441;50.856;6.076;2024-02-14T01:16:20;8.70;99.90
37594;DHT22;23441;50.856;6.076;2024-02-14T01:18:46;8.60;99.90
37594;DHT22;23441;50.856;6.076;2024-02-14T01:21:12;8.60;99.90
37594;DHT22;23441;50.856;6.076;2024-02-14T01:23:37;8.70;99.90
37594;DHT22;23441;50.856;6.076;2024-02-14T01:26:03;8.60;99.90
37594;DHT22;23441;50.856;6.076;2024-02-14T01:28:29;8.60;99.90
37594;DHT22;23441;50.856;6.076;2024-02-14T01:31:13;8.60;99.90
37594;DHT22;23441;50.856;6.076;2024-02-14T01:33:59;8.60;99.90
37594;DHT22;23441;50.856;6.076;2024-02-14T01:36:48;8.70;99.90
37594;DHT22;23441;50.856;6.076;2024-02-14T01:39:34;8.70;99.90
37594;DHT22;23441;50.856;6.076;2024-02-14T01:42:20;8.80;99.90
37594;DHT22;23441;50.856;6.076;2024-02-14T01:45:06;8.80;99.90
37594;DHT22;23441;50.856;6.076;2024-02-14T01:47:52;8.80;99.90
37594;DHT22;23441;50.856;6.076;2024-02-14T01:50:39;8.80;99.90
37594;DHT22;23441;50.856;6.076;2024-02-14T01:53:27;8.80;99.90
37594;DHT22;23441;50.856;6.076;2024-02-14T01:56:16;8.80;99.90
37594;DHT22;23441;50.856;6.076;2024-02-14T01:59:02;8.80;99.90
37594;DHT22;23441;50.856;6.076;2024-02-14T02:01:48;8.70;99.90
37594;DHT22;23441;50.856;6.076;2024-02-14T02:04:34;8.70;99.90
37594;DHT22;23441;50.856;6.076;2024-02-14T02:07:20;8.70;99.90
37594;DHT22;23441;50.856;6.076;2024-02-14T02:10:06;8.70;99.90
37594;DHT22;23441;50.856;6.076;2024-02-14T02:13:00;8.70;99.90
37594;DHT22;23441;50.856;6.076;2024-02-14T02:15:46;8.80;99.90
37594;DHT22;23441;50.856;6.076;2024-02-14T02:18:32;8.90;99.90
37594;DHT22;23441;50.856;6.076;2024-02-14T02:21:18;8.90;99.90
37594;DHT22;23441;50.856;6.076;2024-02-14T02:24:08;8.90;99.90
37594;DHT22;23441;50.856;6.076;2024-02-14T02:26:55;8.90;99.90
37594;DHT22;23441;50.856;6.076;2024-02-14T02:29:42;8.90;99.90
37594;DHT22;23441;50.856;6.076;2024-02-14T02:32:28;8.90;99.90
37594;DHT22;23441;50.856;6.076;2024-02-14T02:35:14;8.90;99.90
37594;DHT22;23441;50.856;6.076;2024-02-14T02:38:00;9.00;99.90
37594;DHT22;23441;50.856;6.076;2024-02-14T02:40:46;8.90;99.90
37594;DHT22;23441;50.856;6.076;2024-02-14T02:43:35;8.90;99.90
37594;DHT22;23441;50.856;6.076;2024-02-14T02:46:21;9.00;99.90
37594;DHT22;23441;50.856;6.076;2024-02-14T02:49:08;8.90;99.90
37594;DHT22;23441;50.856;6.076;2024-02-14T02:51:53;8.90;99.90
37594;DHT22;23441;50.856;6.076;2024-02-14T02:54:40;8.90;99.90
37594;DHT22;23441;50.856;6.076;2024-02-14T02:57:27;8.90;99.90
37594;DHT22;23441;50.856;6.076;2024-02-14T03:00:13;8.90;99.90
37594;DHT22;23441;50.856;6.076;2024-02-14T03:03:00;8.80;99.90
37594;DHT22;23441;50.856;6.076;2024-02-14T03:05:46;8.80;99.90
37594;DHT22;23441;50.856;6.076;2024-02-14T03:08:32;8.80;99.90
37594;DHT22;23441;50.856;6.076;2024-02-14T03:11:20;8.60;99.90
37594;DHT22;23441;50.856;6.076;2024-02-14T03:14:06;8.60;99.90
37594;DHT22;23441;50.856;6.076;2024-02-14T03:16:53;8.50;99.90
37594;DHT22;23441;50.856;6.076;2024-02-14T03:19:41;8.50;99.90
37594;DHT22;23441;50.856;6.076;2024-02-14T03:22:27;8.40;99.90
37594;DHT22;23441;50.856;6.076;2024-02-14T03:25:16;8.40;99.90
37594;DHT22;23441;50.856;6.076;2024-02-14T03:28:04;8.50;99.90
37594;DHT22;23441;50.856;6.076;2024-02-14T03:30:54;8.40;99.90
37594;DHT22;23441;50.856;6.076;2024-02-14T03:33:40;8.40;99.90
37594;DHT22;23441;50.856;6.076;2024-02-14T03:36:26;8.40;99.90
37594;DHT22;23441;50.856;6.076;2024-02-14T03:39:16;8.40;99.90
37594;DHT22;23441;50.856;6.076;2024-02-14T03:42:03;8.40;99.90
37594;DHT22;23441;50.856;6.076;2024-02-14T03:44:53;8.40;99.90
37594;DHT22;23441;50.856;6.076;2024-02-14T03:47:41;8.40;99.90
37594;DHT22;23441;50.856;6.076;2024-02-14T03:50:27;8.40;99.90
37594;DHT22;23441;50.856;6.076;2024-02-14T03:53:14;8.40;99.90
37594;DHT22;23441;50.856;6.076;2024-02-14T03:56:00;8.50;99.90
37594;DHT22;23441;50.856;6.076;2024-02-14T03:58:46;8.50;99.90
37594;DHT22;23441;50.856;6.076;2024-02-14T04:01:32;8.50;99.90
37594;DHT22;23441;50.856;6.076;2024-02-14T04:04:19;8.50;99.90
37594;DHT22;23441;50.856;6.076;2024-02-14T04:07:05;8.60;99.90
37594;DHT22;23441;50.856;6.076;2024-02-14T04:09:51;8.60;99.90
37594;DHT22;23441;50.856;6.076;2024-02-14T04:12:37;8.60;99.90
37594;DHT22;23441;50.856;6.076;2024-02-14T04:15:23;8.60;99.90
37594;DHT22;23441;50.856;6.076;2024-02-14T04:18:09;8.60;99.90
37594;DHT22;23441;50.856;6.076;2024-02-14T04:20:54;8.60;99.90
37594;DHT22;23441;50.856;6.076;2024-02-14T04:23:41;8.60;99.90
37594;DHT22;23441;50.856;6.076;2024-02-14T04:26:27;8.60;99.90
37594;DHT22;23441;50.856;6.076;2024-02-14T04:29:13;8.60;99.90
37594;DHT22;23441;50.856;6.076;2024-02-14T04:31:59;8.60;99.90
37594;DHT22;23441;50.856;6.076;2024-02-14T04:34:45;8.60;99.90
37594;DHT22;23441;50.856;6.076;2024-02-14T04:37:31;8.60;99.90
37594;DHT22;23441;50.856;6.076;2024-02-14T04:40:18;8.60;99.90
37594;DHT22;23441;50.856;6.076;2024-02-14T04:43:05;8.60;99.90
37594;DHT22;23441;50.856;6.076;2024-02-14T04:45:51;8.60;99.90
37594;DHT22;23441;50.856;6.076;2024-02-14T04:48:37;8.50;99.90
37594;DHT22;23441;50.856;6.076;2024-02-14T04:51:23;8.60;99.90
37594;DHT22;23441;50.856;6.076;2024-02-14T04:54:09;8.50;99.90
37594;DHT22;23441;50.856;6.076;2024-02-14T04:56:55;8.60;99.90
37594;DHT22;23441;50.856;6.076;2024-02-14T04:59:41;8.60;99.90
37594;DHT22;23441;50.856;6.076;2024-02-14T05:02:27;8.50;99.90
37594;DHT22;23441;50.856;6.076;2024-02-14T05:05:13;8.60;99.90
37594;DHT22;23441;50.856;6.076;2024-02-14T05:07:59;8.60;99.90
37594;DHT22;23441;50.856;6.076;2024-02-14T05:10:45;8.60;99.90
37594;DHT22;23441;50.856;6.076;2024-02-14T05:13:31;8.60;99.90
37594;DHT22;23441;50.856;6.076;2024-02-14T05:16:19;8.60;99.90
37594;DHT22;23441;50.856;6.076;2024-02-14T05:19:05;8.60;99.90
37594;DHT22;23441;50.856;6.076;2024-02-14T05:21:51;8.60;99.90
37594;DHT22;23441;50.856;6.076;2024-02-14T05:24:36;8.60;99.90
37594;DHT22;23441;50.856;6.076;2024-02-14T05:27:23;8.50;99.90
37594;DHT22;23441;50.856;6.076;2024-02-14T05:30:09;8.50;99.90
37594;DHT22;23441;50.856;6.076;2024-02-14T05:32:55;8.50;99.90
37594;DHT22;23441;50.856;6.076;2024-02-14T05:35:41;8.50;99.90
37594;DHT22;23441;50.856;6.076;2024-02-14T05:38:27;8.50;99.90
37594;DHT22;23441;50.856;6.076;2024-02-14T05:41:12;8.60;99.90
37594;DHT22;23441;50.856;6.076;2024-02-14T05:43:59;8.60;99.90
37594;DHT22;23441;50.856;6.076;2024-02-14T05:46:45;8.60;99.90
37594;DHT22;23441;50.856;6.076;2024-02-14T05:49:32;8.60;99.90
37594;DHT22;23441;50.856;6.076;2024-02-14T05:52:17;8.60;99.90
37594;DHT22;23441;50.856;6.076;2024-02-14T05:55:04;8.60;99.90
37594;DHT22;23441;50.856;6.076;2024-02-14T05:57:51;8.60;99.90
37594;DHT22;23441;50.856;6.076;2024-02-14T06:00:40;8.60;99.90
37594;DHT22;23441;50.856;6.076;2024-02-14T06:03:26;8.60;99.90
37594;DHT22;23441;50.856;6.076;2024-02-14T06:06:13;8.60;99.90
37594;DHT22;23441;50.856;6.076;2024-02-14T06:08:59;8.60;99.90
37594;DHT22;23441;50.856;6.076;2024-02-14T06:11:45;8.70;99.90
37594;DHT22;23441;50.856;6.076;2024-02-14T06:14:31;8.70;99.90
37594;DHT22;23441;50.856;6.076;2024-02-14T06:17:19;8.70;99.90
37594;DHT22;23441;50.856;6.076;2024-02-14T06:20:06;8.70;99.90
37594;DHT22;23441;50.856;6.076;2024-02-14T06:22:53;8.70;99.90
37594;DHT22;23441;50.856;6.076;2024-02-14T06:25:40;8.60;99.90
37594;DHT22;23441;50.856;6.076;2024-02-14T06:28:26;8.60;99.90
37594;DHT22;23441;50.856;6.076;2024-02-14T06:31:12;8.60;99.90
37594;DHT22;23441;50.856;6.076;2024-02-14T06:33:58;8.60;99.90
37594;DHT22;23441;50.856;6.076;2024-02-14T06:36:44;8.70;99.90
37594;DHT22;23441;50.856;6.076;2024-02-14T06:39:29;8.70;99.90
37594;DHT22;23441;50.856;6.076;2024-02-14T06:42:16;8.70;99.90
37594;DHT22;23441;50.856;6.076;2024-02-14T06:45:03;8.80;99.90
37594;DHT22;23441;50.856;6.076;2024-02-14T06:47:49;8.80;99.90
37594;DHT22;23441;50.856;6.076;2024-02-14T06:50:35;8.80;99.90
37594;DHT22;23441;50.856;6.076;2024-02-14T06:53:21;8.90;99.90
37594;DHT22;23441;50.856;6.076;2024-02-14T06:56:07;8.90;99.90
37594;DHT22;23441;50.856;6.076;2024-02-14T06:58:53;8.90;99.90
37594;DHT22;23441;50.856;6.076;2024-02-14T07:01:45;8.90;99.90
37594;DHT22;23441;50.856;6.076;2024-02-14T07:04:31;8.90;99.90
37594;DHT22;23441;50.856;6.076;2024-02-14T07:07:17;8.90;99.90
37594;DHT22;23441;50.856;6.076;2024-02-14T07:10:03;8.90;99.90
37594;DHT22;23441;50.856;6.076;2024-02-14T07:12:51;8.90;99.90
37594;DHT22;23441;50.856;6.076;2024-02-14T07:15:37;8.80;99.90
37594;DHT22;23441;50.856;6.076;2024-02-14T07:18:23;8.90;99.90
37594;DHT22;23441;50.856;6.076;2024-02-14T07:21:09;8.90;99.90
37594;DHT22;23441;50.856;6.076;2024-02-14T07:23:55;8.90;99.90
37594;DHT22;23441;50.856;6.076;2024-02-14T07:26:41;9.00;99.90
37594;DHT22;23441;50.856;6.076;2024-02-14T07:29:29;9.00;99.90
37594;DHT22;23441;50.856;6.076;2024-02-14T07:32:15;9.00;99.90
37594;DHT22;23441;50.856;6.076;2024-02-14T07:35:02;9.00;99.90
37594;DHT22;23441;50.856;6.076;2024-02-14T07:37:48;9.10;99.90
37594;DHT22;23441;50.856;6.076;2024-02-14T07:40:34;9.20;99.90
37594;DHT22;23441;50.856;6.076;2024-02-14T07:43:20;9.20;99.90
37594;DHT22;23441;50.856;6.076;2024-02-14T07:46:06;9.20;99.90
37594;DHT22;23441;50.856;6.076;2024-02-14T07:48:53;9.30;99.90
37594;DHT22;23441;50.856;6.076;2024-02-14T07:51:38;9.40;99.90
37594;DHT22;23441;50.856;6.076;2024-02-14T07:54:24;9.40;99.90
37594;DHT22;23441;50.856;6.076;2024-02-14T07:57:10;9.50;99.90
37594;DHT22;23441;50.856;6.076;2024-02-14T07:59:56;9.50;99.90
37594;DHT22;23441;50.856;6.076;2024-02-14T08:02:42;9.60;99.90
37594;DHT22;23441;50.856;6.076;2024-02-14T08:05:28;9.60;99.90
37594;DHT22;23441;50.856;6.076;2024-02-14T08:08:14;9.70;99.90
37594;DHT22;23441;50.856;6.076;2024-02-14T08:11:00;9.70;99.90
37594;DHT22;23441;50.856;6.076;2024-02-14T08:13:46;9.80;99.90
37594;DHT22;23441;50.856;6.076;2024-02-14T08:16:32;9.80;99.90
37594;DHT22;23441;50.856;6.076;2024-02-14T08:19:18;9.90;99.90
37594;DHT22;23441;50.856;6.076;2024-02-14T08:22:04;10.00;99.90
37594;DHT22;23441;50.856;6.076;2024-02-14T08:24:51;10.00;99.90
37594;DHT22;23441;50.856;6.076;2024-02-14T08:27:37;10.10;99.90
37594;DHT22;23441;50.856;6.076;2024-02-14T08:30:23;10.10;99.90
37594;DHT22;23441;50.856;6.076;2024-02-14T08:33:09;10.10;99.90
37594;DHT22;23441;50.856;6.076;2024-02-14T08:35:56;10.20;99.90
37594;DHT22;23441;50.856;6.076;2024-02-14T08:38:43;10.30;99.90
37594;DHT22;23441;50.856;6.076;2024-02-14T08:41:28;10.40;99.90
37594;DHT22;23441;50.856;6.076;2024-02-14T08:44:14;10.50;99.90
37594;DHT22;23441;50.856;6.076;2024-02-14T08:47:00;10.50;99.90
37594;DHT22;23441;50.856;6.076;2024-02-14T08:49:46;10.70;99.90
37594;DHT22;23441;50.856;6.076;2024-02-14T08:52:32;10.70;99.90
37594;DHT22;23441;50.856;6.076;2024-02-14T08:55:18;10.80;99.90
37594;DHT22;23441;50.856;6.076;2024-02-14T08:58:04;10.80;99.90
37594;DHT22;23441;50.856;6.076;2024-02-14T09:00:51;11.00;99.90
37594;DHT22;23441;50.856;6.076;2024-02-14T09:03:38;11.10;99.90
37594;DHT22;23441;50.856;6.076;2024-02-14T09:06:24;11.20;99.90
37594;DHT22;23441;50.856;6.076;2024-02-14T09:09:12;11.30;99.90
37594;DHT22;23441;50.856;6.076;2024-02-14T09:11:59;11.20;99.90
37594;DHT22;23441;50.856;6.076;2024-02-14T09:14:48;11.20;99.90
37594;DHT22;23441;50.856;6.076;2024-02-14T09:17:34;11.20;99.90
37594;DHT22;23441;50.856;6.076;2024-02-14T09:20:20;11.20;99.90
37594;DHT22;23441;50.856;6.076;2024-02-14T09:23:06;11.10;99.90
37594;DHT22;23441;50.856;6.076;2024-02-14T09:25:52;11.20;99.90
37594;DHT22;23441;50.856;6.076;2024-02-14T09:28:41;11.30;99.90
37594;DHT22;23441;50.856;6.076;2024-02-14T09:31:27;11.30;99.90
37594;DHT22;23441;50.856;6.076;2024-02-14T09:34:13;11.40;99.90
37594;DHT22;23441;50.856;6.076;2024-02-14T09:37:00;11.50;99.90
37594;DHT22;23441;50.856;6.076;2024-02-14T09:39:46;11.50;99.90
37594;DHT22;23441;50.856;6.076;2024-02-14T09:42:55;11.40;99.90
37594;DHT22;23441;50.856;6.076;2024-02-14T09:45:44;11.40;99.90
37594;DHT22;23441;50.856;6.076;2024-02-14T09:48:30;11.30;99.90
37594;DHT22;23441;50.856;6.076;2024-02-14T09:51:18;11.30;99.90
37594;DHT22;23441;50.856;6.076;2024-02-14T09:54:04;11.30;99.90
37594;DHT22;23441;50.856;6.076;2024-02-14T09:56:50;11.20;99.90
37594;DHT22;23441;50.856;6.076;2024-02-14T09:59:39;11.20;99.90
37594;DHT22;23441;50.856;6.076;2024-02-14T10:02:25;11.20;99.90
37594;DHT22;23441;50.856;6.076;2024-02-14T10:05:11;11.20;99.90
37594;DHT22;23441;50.856;6.076;2024-02-14T10:07:57;11.20;99.90
37594;DHT22;23441;50.856;6.076;2024-02-14T10:10:44;11.20;99.90
37594;DHT22;23441;50.856;6.076;2024-02-14T10:13:30;11.30;99.90
37594;DHT22;23441;50.856;6.076;2024-02-14T10:16:17;11.30;99.90
37594;DHT22;23441;50.856;6.076;2024-02-14T10:19:04;11.30;99.90
37594;DHT22;23441;50.856;6.076;2024-02-14T10:22:00;11.40;99.90
37594;DHT22;23441;50.856;6.076;2024-02-14T10:24:47;11.50;99.90
37594;DHT22;23441;50.856;6.076;2024-02-14T10:27:40;11.50;99.90
37594;DHT22;23441;50.856;6.076;2024-02-14T10:30:26;11.60;99.90
37594;DHT22;23441;50.856;6.076;2024-02-14T10:33:14;11.60;99.90
37594;DHT22;23441;50.856;6.076;2024-02-14T10:36:01;11.70;99.90
37594;DHT22;23441;50.856;6.076;2024-02-14T10:38:50;11.80;99.90
37594;DHT22;23441;50.856;6.076;2024-02-14T10:41:36;12.00;99.90
37594;DHT22;23441;50.856;6.076;2024-02-14T10:44:22;12.20;99.90
37594;DHT22;23441;50.856;6.076;2024-02-14T10:47:10;12.20;99.90
37594;DHT22;23441;50.856;6.076;2024-02-14T10:50:04;12.20;99.90
37594;DHT22;23441;50.856;6.076;2024-02-14T10:52:53;12.20;99.90
37594;DHT22;23441;50.856;6.076;2024-02-14T10:55:46;12.20;99.90
37594;DHT22;23441;50.856;6.076;2024-02-14T10:58:33;12.10;99.90
37594;DHT22;23441;50.856;6.076;2024-02-14T11:01:20;12.00;99.90
37594;DHT22;23441;50.856;6.076;2024-02-14T11:04:08;12.10;99.90
37594;DHT22;23441;50.856;6.076;2024-02-14T11:06:54;12.10;99.90
37594;DHT22;23441;50.856;6.076;2024-02-14T11:09:48;12.10;99.90
37594;DHT22;23441;50.856;6.076;2024-02-14T11:12:35;12.00;99.90
37594;DHT22;23441;50.856;6.076;2024-02-14T11:15:23;12.20;99.90
37594;DHT22;23441;50.856;6.076;2024-02-14T11:18:25;12.20;99.90
37594;DHT22;23441;50.856;6.076;2024-02-14T11:21:17;12.20;99.90
37594;DHT22;23441;50.856;6.076;2024-02-14T11:24:07;12.20;99.90
37594;DHT22;23441;50.856;6.076;2024-02-14T11:26:55;12.10;99.90
37594;DHT22;23441;50.856;6.076;2024-02-14T11:29:52;12.10;99.90
37594;DHT22;23441;50.856;6.076;2024-02-14T11:32:38;12.00;99.90
37594;DHT22;23441;50.856;6.076;2024-02-14T11:35:28;12.10;99.90
37594;DHT22;23441;50.856;6.076;2024-02-14T11:38:14;12.20;99.90
37594;DHT22;23441;50.856;6.076;2024-02-14T11:41:00;12.30;99.90
37594;DHT22;23441;50.856;6.076;2024-02-14T11:43:52;12.30;99.90
37594;DHT22;23441;50.856;6.076;2024-02-14T11:46:39;12.40;99.90
37594;DHT22;23441;50.856;6.076;2024-02-14T11:49:25;12.50;99.90
37594;DHT22;23441;50.856;6.076;2024-02-14T11:52:11;12.40;99.90
37594;DHT22;23441;50.856;6.076;2024-02-14T11:54:58;12.30;99.90
37594;DHT22;23441;50.856;6.076;2024-02-14T11:57:45;12.20;99.90
37594;DHT22;23441;50.856;6.076;2024-02-14T12:00:33;12.20;99.90
37594;DHT22;23441;50.856;6.076;2024-02-14T12:03:23;12.20;99.90
37594;DHT22;23441;50.856;6.076;2024-02-14T12:06:09;12.20;99.90
37594;DHT22;23441;50.856;6.076;2024-02-14T12:08:56;12.20;99.90
37594;DHT22;23441;50.856;6.076;2024-02-14T12:11:42;12.20;99.90
37594;DHT22;23441;50.856;6.076;2024-02-14T12:14:32;12.20;99.90
37594;DHT22;23441;50.856;6.076;2024-02-14T12:17:18;12.20;99.90
37594;DHT22;23441;50.856;6.076;2024-02-14T12:20:11;12.20;99.90
37594;DHT22;23441;50.856;6.076;2024-02-14T12:22:58;12.10;99.90
37594;DHT22;23441;50.856;6.076;2024-02-14T12:25:45;12.00;99.90
37594;DHT22;23441;50.856;6.076;2024-02-14T12:28:35;12.00;99.90
37594;DHT22;23441;50.856;6.076;2024-02-14T12:31:25;12.10;99.90
37594;DHT22;23441;50.856;6.076;2024-02-14T12:34:11;12.00;99.90
37594;DHT22;23441;50.856;6.076;2024-02-14T12:36:57;11.90;99.90
37594;DHT22;23441;50.856;6.076;2024-02-14T12:39:44;12.00;99.90
37594;DHT22;23441;50.856;6.076;2024-02-14T12:42:29;12.00;99.90
37594;DHT22;23441;50.856;6.076;2024-02-14T12:45:15;12.00;99.90
37594;DHT22;23441;50.856;6.076;2024-02-14T12:48:02;11.90;99.90
37594;DHT22;23441;50.856;6.076;2024-02-14T12:50:48;11.80;99.90
37594;DHT22;23441;50.856;6.076;2024-02-14T12:53:35;11.90;99.90
37594;DHT22;23441;50.856;6.076;2024-02-14T12:56:21;11.80;99.90
37594;DHT22;23441;50.856;6.076;2024-02-14T12:59:07;11.90;99.90
37594;DHT22;23441;50.856;6.076;2024-02-14T13:01:57;11.80;99.90
37594;DHT22;23441;50.856;6.076;2024-02-14T13:04:43;11.80;99.90
37594;DHT22;23441;50.856;6.076;2024-02-14T13:07:29;11.60;99.90
37594;DHT22;23441;50.856;6.076;2024-02-14T13:10:15;11.60;99.90
37594;DHT22;23441;50.856;6.076;2024-02-14T13:13:01;11.60;99.90
37594;DHT22;23441;50.856;6.076;2024-02-14T13:15:47;11.60;99.90
37594;DHT22;23441;50.856;6.076;2024-02-14T13:18:33;11.60;99.90
37594;DHT22;23441;50.856;6.076;2024-02-14T13:21:20;11.60;99.90
37594;DHT22;23441;50.856;6.076;2024-02-14T13:24:07;11.50;99.90
37594;DHT22;23441;50.856;6.076;2024-02-14T13:26:54;11.50;99.90
37594;DHT22;23441;50.856;6.076;2024-02-14T13:29:40;11.50;99.90
37594;DHT22;23441;50.856;6.076;2024-02-14T13:32:26;11.50;99.90
37594;DHT22;23441;50.856;6.076;2024-02-14T13:35:12;11.50;99.90
37594;DHT22;23441;50.856;6.076;2024-02-14T13:37:59;11.40;99.90
37594;DHT22;23441;50.856;6.076;2024-02-14T13:40:45;11.50;99.90
37594;DHT22;23441;50.856;6.076;2024-02-14T13:43:31;11.50;99.90
37594;DHT22;23441;50.856;6.076;2024-02-14T13:46:17;11.50;99.90
37594;DHT22;23441;50.856;6.076;2024-02-14T13:49:04;11.50;99.90
37594;DHT22;23441;50.856;6.076;2024-02-14T13:51:51;11.60;99.90
37594;DHT22;23441;50.856;6.076;2024-02-14T13:54:37;11.60;99.90
37594;DHT22;23441;50.856;6.076;2024-02-14T13:57:23;11.60;99.90
37594;DHT22;23441;50.856;6.076;2024-02-14T14:00:09;11.70;99.90
37594;DHT22;23441;50.856;6.076;2024-02-14T14:02:55;11.60;99.90
37594;DHT22;23441;50.856;6.076;2024-02-14T14:05:42;11.70;99.90
37594;DHT22;23441;50.856;6.076;2024-02-14T14:08:28;11.70;99.90
37594;DHT22;23441;50.856;6.076;2024-02-14T14:11:13;11.60;99.90
37594;DHT22;23441;50.856;6.076;2024-02-14T14:13:59;11.70;99.90
37594;DHT22;23441;50.856;6.076;2024-02-14T14:16:46;11.70;99.90
37594;DHT22;23441;50.856;6.076;2024-02-14T14:19:33;11.60;99.90
37594;DHT22;23441;50.856;6.076;2024-02-14T14:22:19;11.70;99.90
37594;DHT22;23441;50.856;6.076;2024-02-14T14:25:05;11.70;99.90
37594;DHT22;23441;50.856;6.076;2024-02-14T14:27:53;11.70;99.90
37594;DHT22;23441;50.856;6.076;2024-02-14T14:30:41;11.60;99.90
37594;DHT22;23441;50.856;6.076;2024-02-14T14:33:27;11.60;99.90
37594;DHT22;23441;50.856;6.076;2024-02-14T14:36:13;11.70;99.90
37594;DHT22;23441;50.856;6.076;2024-02-14T14:38:59;11.70;99.90
37594;DHT22;23441;50.856;6.076;2024-02-14T14:41:46;11.60;99.90
37594;DHT22;23441;50.856;6.076;2024-02-14T14:44:32;11.60;99.90
37594;DHT22;23441;50.856;6.076;2024-02-14T14:47:20;11.70;99.90
37594;DHT22;23441;50.856;6.076;2024-02-14T14:50:06;11.70;99.90
37594;DHT22;23441;50.856;6.076;2024-02-14T14:52:55;11.70;99.90
37594;DHT22;23441;50.856;6.076;2024-02-14T14:55:57;11.70;99.90
37594;DHT22;23441;50.856;6.076;2024-02-14T14:58:43;11.60;99.90
37594;DHT22;23441;50.856;6.076;2024-02-14T15:01:30;11.60;99.90
37594;DHT22;23441;50.856;6.076;2024-02-14T15:04:16;11.60;99.90
37594;DHT22;23441;50.856;6.076;2024-02-14T15:07:02;11.60;99.90
37594;DHT22;23441;50.856;6.076;2024-02-14T15:09:48;11.70;99.90
37594;DHT22;23441;50.856;6.076;2024-02-14T15:12:34;11.60;99.90
37594;DHT22;23441;50.856;6.076;2024-02-14T15:15:21;11.60;99.90
37594;DHT22;23441;50.856;6.076;2024-02-14T15:18:08;11.60;99.90
37594;DHT22;23441;50.856;6.076;2024-02-14T15:20:54;11.60;99.90
37594;DHT22;23441;50.856;6.076;2024-02-14T15:23:40;11.60;99.90
37594;DHT22;23441;50.856;6.076;2024-02-14T15:26:26;11.60;99.90
37594;DHT22;23441;50.856;6.076;2024-02-14T15:29:12;11.60;99.90
37594;DHT22;23441;50.856;6.076;2024-02-14T15:32:16;11.60;99.90
37594;DHT22;23441;50.856;6.076;2024-02-14T15:35:21;11.60;99.90
37594;DHT22;23441;50.856;6.076;2024-02-14T15:38:07;11.60;99.90
37594;DHT22;23441;50.856;6.076;2024-02-14T15:40:55;11.60;99.90
37594;DHT22;23441;50.856;6.076;2024-02-14T15:43:42;11.60;99.90
37594;DHT22;23441;50.856;6.076;2024-02-14T15:46:29;11.60;99.90
37594;DHT22;23441;50.856;6.076;2024-02-14T15:49:15;11.50;99.90
37594;DHT22;23441;50.856;6.076;2024-02-14T15:52:02;11.50;99.90
37594;DHT22;23441;50.856;6.076;2024-02-14T15:54:49;11.50;99.90
37594;DHT22;23441;50.856;6.076;2024-02-14T15:57:35;11.50;99.90
37594;DHT22;23441;50.856;6.076;2024-02-14T16:00:21;11.50;99.90
37594;DHT22;23441;50.856;6.076;2024-02-14T16:03:07;11.50;99.90
37594;DHT22;23441;50.856;6.076;2024-02-14T16:05:53;11.50;99.90
37594;DHT22;23441;50.856;6.076;2024-02-14T16:08:39;11.60;99.90
37594;DHT22;23441;50.856;6.076;2024-02-14T16:11:25;11.60;99.90
37594;DHT22;23441;50.856;6.076;2024-02-14T16:14:11;11.60;99.90
37594;DHT22;23441;50.856;6.076;2024-02-14T16:16:57;11.60;99.90
37594;DHT22;23441;50.856;6.076;2024-02-14T16:19:43;11.60;99.90
37594;DHT22;23441;50.856;6.076;2024-02-14T16:22:29;11.60;99.90
37594;DHT22;23441;50.856;6.076;2024-02-14T16:25:15;11.60;99.90
37594;DHT22;23441;50.856;6.076;2024-02-14T16:28:02;11.50;99.90
37594;DHT22;23441;50.856;6.076;2024-02-14T16:30:48;11.50;99.90
37594;DHT22;23441;50.856;6.076;2024-02-14T16:33:34;11.50;99.90
37594;DHT22;23441;50.856;6.076;2024-02-14T16:36:20;11.50;99.90
37594;DHT22;23441;50.856;6.076;2024-02-14T16:39:06;11.50;99.90
37594;DHT22;23441;50.856;6.076;2024-02-14T16:41:53;11.50;99.90
37594;DHT22;23441;50.856;6.076;2024-02-14T16:44:39;11.40;99.90
37594;DHT22;23441;50.856;6.076;2024-02-14T16:47:25;11.40;99.90
37594;DHT22;23441;50.856;6.076;2024-02-14T16:50:12;11.40;99.90
37594;DHT22;23441;50.856;6.076;2024-02-14T16:52:58;11.40;99.90
37594;DHT22;23441;50.856;6.076;2024-02-14T16:55:44;11.40;99.90
37594;DHT22;23441;50.856;6.076;2024-02-14T16:58:30;11.40;99.90
37594;DHT22;23441;50.856;6.076;2024-02-14T17:01:16;11.40;99.90
37594;DHT22;23441;50.856;6.076;2024-02-14T17:04:01;11.40;99.90
37594;DHT22;23441;50.856;6.076;2024-02-14T17:06:47;11.40;99.90
37594;DHT22;23441;50.856;6.076;2024-02-14T17:09:33;11.40;99.90
37594;DHT22;23441;50.856;6.076;2024-02-14T17:12:19;11.50;99.90
37594;DHT22;23441;50.856;6.076;2024-02-14T17:15:06;11.50;99.90
37594;DHT22;23441;50.856;6.076;2024-02-14T17:17:52;11.50;99.90
37594;DHT22;23441;50.856;6.076;2024-02-14T17:20:38;11.50;99.90
37594;DHT22;23441;50.856;6.076;2024-02-14T17:23:24;11.50;99.90
37594;DHT22;23441;50.856;6.076;2024-02-14T17:26:10;11.50;99.90
37594;DHT22;23441;50.856;6.076;2024-02-14T17:28:55;11.50;99.90